Time,TemperatureF,DewpointF,PressureIn,WindDirection,WindDirectionDegrees,WindSpeedMPH,WindSpeedGustMPH,Humidity,HourlyPrecipIn,Conditions,Clouds,dailyrainin,SolarRadiationWatts/m^2,SoftwareType,DateUTC
2013-04-21 00:01:00,31.0,23.0,-100.00,West,280,9.0,17.0,71,0.00,,,0.00,0.000000,,2013-04-21 06:01:00,
2013-04-21 00:12:00,31.0,23.0,-100.00,West,280,9.0,17.0,71,0.00,,,0.00,0.000000,,2013-04-21 06:12:00,
2013-04-21 00:22:00,31.0,23.0,-100.00,West,280,9.0,17.0,71,0.00,,,0.00,0.000000,,2013-04-21 06:22:00,
2013-04-21 00:32:00,31.0,23.0,-100.00,West,280,9.0,17.0,71,0.00,,,0.00,0.000000,,2013-04-21 06:32:00,
2013-04-21 00:52:00,29.0,24.0,-100.00,West,272,3.0,12.0,81,0.00,,,0.00,0.000000,,2013-04-21 06:52:00,
2013-04-21 01:01:00,29.0,24.0,-100.00,West,272,3.0,12.0,81,0.00,,,0.00,0.000000,,2013-04-21 07:01:00,
2013-04-21 01:12:00,29.0,24.0,-100.00,West,272,3.0,12.0,81,0.00,,,0.00,0.000000,,2013-04-21 07:12:00,
2013-04-21 01:21:00,29.0,24.0,-100.00,West,272,3.0,12.0,81,0.00,,,0.00,0.000000,,2013-04-21 07:21:00,
2013-04-21 01:31:00,29.0,24.0,-100.00,West,272,3.0,12.0,81,0.00,,,0.00,0.000000,,2013-04-21 07:31:00,
2013-04-21 01:52:00,28.0,22.0,-100.00,WSW,242,3.0,7.0,79,0.00,,,0.00,0.000000,,2013-04-21 07:52:00,
2013-04-21 02:01:00,28.0,22.0,-100.00,WSW,242,3.0,7.0,79,0.00,,,0.00,0.000000,,2013-04-21 08:01:00,
2013-04-21 02:12:00,28.0,22.0,-100.00,WSW,242,3.0,7.0,79,0.00,,,0.00,0.000000,,2013-04-21 08:12:00,
2013-04-21 02:21:00,28.0,22.0,-100.00,WSW,242,3.0,7.0,79,0.00,,,0.00,0.000000,,2013-04-21 08:21:00,
2013-04-21 02:32:00,28.0,22.0,-100.00,WSW,242,3.0,7.0,79,0.00,,,0.00,0.000000,,2013-04-21 08:32:00,
2013-04-21 02:52:00,29.0,20.0,-100.00,WNW,301,7.0,16.0,70,0.00,,,0.00,0.000000,,2013-04-21 08:52:00,
2013-04-21 03:02:00,29.0,20.0,-100.00,WNW,301,7.0,16.0,70,0.00,,,0.00,0.000000,,2013-04-21 09:02:00,
2013-04-21 03:12:00,29.0,20.0,-100.00,WNW,301,7.0,16.0,70,0.00,,,0.00,0.000000,,2013-04-21 09:12:00,
2013-04-21 03:21:00,29.0,20.0,-100.00,WNW,301,7.0,16.0,70,0.00,,,0.00,0.000000,,2013-04-21 09:21:00,
2013-04-21 03:32:00,29.0,20.0,-100.00,WNW,301,7.0,16.0,70,0.00,,,0.00,0.000000,,2013-04-21 09:32:00,
2013-04-21 03:53:00,30.0,17.0,-100.00,SW,215,13.0,26.0,59,0.00,,,0.00,0.000000,,2013-04-21 09:53:00,
2013-04-21 04:03:00,30.0,17.0,-100.00,SW,215,13.0,26.0,59,0.00,,,0.00,0.000000,,2013-04-21 10:03:00,
2013-04-21 04:12:00,30.0,17.0,-100.00,SW,215,13.0,26.0,59,0.00,,,0.00,0.000000,,2013-04-21 10:12:00,
2013-04-21 04:22:00,30.0,17.0,-100.00,SW,215,13.0,26.0,59,0.00,,,0.00,0.000000,,2013-04-21 10:22:00,
2013-04-21 04:32:00,30.0,17.0,-100.00,SW,215,13.0,26.0,59,0.00,,,0.00,0.000000,,2013-04-21 10:32:00,
2013-04-21 04:34:00,30.0,18.0,-100.00,SW,220,12.0,25.0,61,0.00,,,0.00,0.000000,,2013-04-21 10:34:00,
2013-04-21 04:52:00,30.0,18.0,-100.00,SW,220,12.0,25.0,61,0.00,,,0.00,0.000000,,2013-04-21 10:52:00,
2013-04-21 05:02:00,30.0,18.0,-100.00,SW,220,12.0,25.0,61,0.00,,,0.00,0.000000,,2013-04-21 11:02:00,
2013-04-21 05:12:00,30.0,18.0,-100.00,SW,220,12.0,25.0,61,0.00,,,0.00,0.000000,,2013-04-21 11:12:00,
2013-04-21 05:22:00,30.0,18.0,-100.00,SW,220,12.0,25.0,61,0.00,,,0.00,0.000000,,2013-04-21 11:22:00,
2013-04-21 05:52:00,30.0,18.0,-100.00,SW,235,11.0,23.0,61,0.00,,,0.00,0.000000,,2013-04-21 11:52:00,
2013-04-21 06:02:00,30.0,18.0,-100.00,SW,235,11.0,23.0,61,0.00,,,0.00,0.000000,,2013-04-21 12:02:00,
2013-04-21 06:12:00,30.0,18.0,-100.00,SW,235,11.0,23.0,61,0.00,,,0.00,0.000000,,2013-04-21 12:12:00,
2013-04-21 06:22:00,30.0,18.0,-100.00,SW,235,11.0,23.0,61,0.00,,,0.00,0.000000,,2013-04-21 12:22:00,
2013-04-21 06:32:00,30.0,18.0,-100.00,SW,235,11.0,23.0,61,0.00,,,0.00,0.000000,,2013-04-21 12:32:00,
2013-04-21 06:52:00,29.0,17.0,-100.00,West,270,8.0,18.0,60,0.00,,,0.00,2.000000,,2013-04-21 12:52:00,
2013-04-21 07:01:00,29.0,17.0,-100.00,West,270,8.0,18.0,60,0.00,,,0.00,2.000000,,2013-04-21 13:01:00,
2013-04-21 07:12:00,29.0,17.0,-100.00,West,270,8.0,18.0,60,0.00,,,0.00,2.000000,,2013-04-21 13:12:00,
2013-04-21 07:21:00,29.0,17.0,-100.00,West,270,8.0,18.0,60,0.00,,,0.00,2.000000,,2013-04-21 13:21:00,
2013-04-21 07:32:00,29.0,17.0,-100.00,West,270,8.0,18.0,60,0.00,,,0.00,2.000000,,2013-04-21 13:32:00,
2013-04-21 07:52:00,29.0,17.0,-100.00,West,262,4.0,16.0,60,0.00,,,0.00,40.000000,,2013-04-21 13:52:00,
2013-04-21 08:02:00,29.0,17.0,-100.00,West,262,4.0,16.0,60,0.00,,,0.00,40.000000,,2013-04-21 14:02:00,
2013-04-21 08:11:00,29.0,17.0,-100.00,West,262,4.0,16.0,60,0.00,,,0.00,40.000000,,2013-04-21 14:11:00,
2013-04-21 08:21:00,29.0,17.0,-100.00,West,262,4.0,16.0,60,0.00,,,0.00,40.000000,,2013-04-21 14:21:00,
2013-04-21 08:32:00,29.0,17.0,-100.00,West,262,4.0,16.0,60,0.00,,,0.00,40.000000,,2013-04-21 14:32:00,
2013-04-21 08:52:00,34.0,15.0,-100.00,WNW,288,7.0,18.0,46,0.00,,,0.00,299.000000,,2013-04-21 14:52:00,
2013-04-21 09:02:00,34.0,15.0,-100.00,WNW,288,7.0,18.0,46,0.00,,,0.00,299.000000,,2013-04-21 15:02:00,
2013-04-21 09:11:00,34.0,15.0,-100.00,WNW,288,7.0,18.0,46,0.00,,,0.00,299.000000,,2013-04-21 15:11:00,
2013-04-21 09:22:00,34.0,15.0,-100.00,WNW,288,7.0,18.0,46,0.00,,,0.00,299.000000,,2013-04-21 15:22:00,
2013-04-21 09:33:00,34.0,15.0,-100.00,WNW,288,7.0,18.0,46,0.00,,,0.00,299.000000,,2013-04-21 15:33:00,
2013-04-21 09:53:00,37.0,18.0,-100.00,NW,308,5.0,11.0,45,0.00,,,0.00,534.000000,,2013-04-21 15:53:00,
2013-04-21 10:03:00,37.0,18.0,-100.00,NW,308,5.0,11.0,45,0.00,,,0.00,534.000000,,2013-04-21 16:03:00,
2013-04-21 10:12:00,37.0,18.0,-100.00,NW,308,5.0,11.0,45,0.00,,,0.00,534.000000,,2013-04-21 16:12:00,
2013-04-21 10:23:00,37.0,18.0,-100.00,NW,308,5.0,11.0,45,0.00,,,0.00,534.000000,,2013-04-21 16:23:00,
2013-04-21 10:33:00,37.0,18.0,-100.00,NW,308,5.0,11.0,45,0.00,,,0.00,534.000000,,2013-04-21 16:33:00,
2013-04-21 10:53:00,40.0,15.0,-100.00,SW,214,8.0,16.0,36,0.00,,,0.00,731.000000,,2013-04-21 16:53:00,
2013-04-21 11:02:00,40.0,15.0,-100.00,SW,214,8.0,16.0,36,0.00,,,0.00,731.000000,,2013-04-21 17:02:00,
2013-04-21 11:12:00,40.0,15.0,-100.00,SW,214,8.0,16.0,36,0.00,,,0.00,731.000000,,2013-04-21 17:12:00,
2013-04-21 11:23:00,40.0,15.0,-100.00,SW,214,8.0,16.0,36,0.00,,,0.00,731.000000,,2013-04-21 17:23:00,
2013-04-21 11:32:00,40.0,15.0,-100.00,SW,214,8.0,16.0,36,0.00,,,0.00,731.000000,,2013-04-21 17:32:00,
2013-04-21 11:52:00,41.0,17.0,-100.00,WSW,247,9.0,22.0,38,0.00,,,0.00,882.000000,,2013-04-21 17:52:00,
2013-04-21 12:02:00,41.0,17.0,-100.00,WSW,247,9.0,22.0,38,0.00,,,0.00,882.000000,,2013-04-21 18:02:00,
2013-04-21 12:11:00,41.0,17.0,-100.00,WSW,247,9.0,22.0,38,0.00,,,0.00,882.000000,,2013-04-21 18:11:00,
2013-04-21 12:22:00,41.0,17.0,-100.00,WSW,247,9.0,22.0,38,0.00,,,0.00,882.000000,,2013-04-21 18:22:00,
2013-04-21 12:32:00,41.0,17.0,-100.00,WSW,247,9.0,22.0,38,0.00,,,0.00,882.000000,,2013-04-21 18:32:00,
2013-04-21 12:52:00,43.0,16.0,-100.00,WSW,257,13.0,25.0,33,0.00,,,0.00,976.000000,,2013-04-21 18:52:00,
2013-04-21 13:02:00,43.0,16.0,-100.00,WSW,257,13.0,25.0,33,0.00,,,0.00,976.000000,,2013-04-21 19:02:00,
2013-04-21 13:12:00,43.0,16.0,-100.00,WSW,257,13.0,25.0,33,0.00,,,0.00,976.000000,,2013-04-21 19:12:00,
2013-04-21 13:21:00,43.0,16.0,-100.00,WSW,257,13.0,25.0,33,0.00,,,0.00,976.000000,,2013-04-21 19:21:00,
2013-04-21 13:32:00,43.0,16.0,-100.00,WSW,257,13.0,25.0,33,0.00,,,0.00,976.000000,,2013-04-21 19:32:00,
2013-04-21 13:52:00,45.0,-1.0,-100.00,SW,231,16.0,25.0,14,0.00,,,0.00,972.000000,,2013-04-21 19:52:00,
2013-04-21 14:02:00,45.0,-1.0,-100.00,SW,231,16.0,25.0,14,0.00,,,0.00,972.000000,,2013-04-21 20:02:00,
2013-04-21 14:11:00,45.0,-1.0,-100.00,SW,231,16.0,25.0,14,0.00,,,0.00,972.000000,,2013-04-21 20:11:00,
2013-04-21 14:22:00,45.0,-1.0,-100.00,SW,231,16.0,25.0,14,0.00,,,0.00,972.000000,,2013-04-21 20:22:00,
2013-04-21 14:32:00,45.0,-1.0,-100.00,SW,231,16.0,25.0,14,0.00,,,0.00,972.000000,,2013-04-21 20:32:00,
2013-04-21 14:52:00,46.0,6.0,-100.00,WSW,252,15.0,29.0,19,0.00,,,0.00,858.000000,,2013-04-21 20:52:00,
2013-04-21 15:02:00,46.0,6.0,-100.00,WSW,252,15.0,29.0,19,0.00,,,0.00,858.000000,,2013-04-21 21:02:00,
2013-04-21 15:12:00,46.0,6.0,-100.00,WSW,252,15.0,29.0,19,0.00,,,0.00,858.000000,,2013-04-21 21:12:00,
2013-04-21 15:21:00,46.0,6.0,-100.00,WSW,252,15.0,29.0,19,0.00,,,0.00,858.000000,,2013-04-21 21:21:00,
2013-04-21 15:33:00,46.0,6.0,-100.00,WSW,252,15.0,29.0,19,0.00,,,0.00,858.000000,,2013-04-21 21:33:00,
2013-04-21 15:53:00,49.0,12.0,-100.00,WNW,295,15.0,32.0,22,0.00,,,0.00,834.000000,,2013-04-21 21:53:00,
2013-04-21 16:02:00,49.0,12.0,-100.00,WNW,295,15.0,32.0,22,0.00,,,0.00,834.000000,,2013-04-21 22:02:00,
2013-04-21 16:12:00,49.0,12.0,-100.00,WNW,295,15.0,32.0,22,0.00,,,0.00,834.000000,,2013-04-21 22:12:00,
2013-04-21 16:22:00,49.0,12.0,-100.00,WNW,295,15.0,32.0,22,0.00,,,0.00,834.000000,,2013-04-21 22:22:00,
2013-04-21 16:33:00,49.0,12.0,-100.00,WNW,295,15.0,32.0,22,0.00,,,0.00,834.000000,,2013-04-21 22:33:00,
2013-04-21 16:53:00,48.0,4.0,-100.00,WSW,243,19.0,29.0,16,0.00,,,0.00,729.000000,,2013-04-21 22:53:00,
2013-04-21 17:02:00,48.0,4.0,-100.00,WSW,243,19.0,29.0,16,0.00,,,0.00,729.000000,,2013-04-21 23:02:00,
2013-04-21 17:12:00,48.0,4.0,-100.00,WSW,243,19.0,29.0,16,0.00,,,0.00,729.000000,,2013-04-21 23:12:00,
2013-04-21 17:22:00,48.0,4.0,-100.00,WSW,243,19.0,29.0,16,0.00,,,0.00,729.000000,,2013-04-21 23:22:00,
2013-04-21 17:32:00,48.0,4.0,-100.00,WSW,243,19.0,29.0,16,0.00,,,0.00,729.000000,,2013-04-21 23:32:00,
2013-04-21 17:52:00,48.0,11.0,-100.00,West,279,14.0,32.0,22,0.00,,,0.00,533.000000,,2013-04-21 23:52:00,
2013-04-21 18:01:00,48.0,11.0,-100.00,West,279,14.0,32.0,22,0.00,,,0.00,533.000000,,2013-04-22 00:01:00,
2013-04-21 18:11:00,48.0,11.0,-100.00,West,279,14.0,32.0,22,0.00,,,0.00,533.000000,,2013-04-22 00:11:00,
2013-04-21 18:21:00,48.0,11.0,-100.00,West,279,14.0,32.0,22,0.00,,,0.00,533.000000,,2013-04-22 00:21:00,
2013-04-21 18:32:00,48.0,11.0,-100.00,West,279,14.0,32.0,22,0.00,,,0.00,533.000000,,2013-04-22 00:32:00,
2013-04-21 18:52:00,46.0,14.0,-100.00,WNW,293,13.0,27.0,27,0.00,,,0.00,320.000000,,2013-04-22 00:52:00,
2013-04-21 19:01:00,46.0,14.0,-100.00,WNW,293,13.0,27.0,27,0.00,,,0.00,320.000000,,2013-04-22 01:01:00,
2013-04-21 19:12:00,46.0,14.0,-100.00,WNW,293,13.0,27.0,27,0.00,,,0.00,320.000000,,2013-04-22 01:12:00,
2013-04-21 19:21:00,46.0,14.0,-100.00,WNW,293,13.0,27.0,27,0.00,,,0.00,320.000000,,2013-04-22 01:21:00,
2013-04-21 19:32:00,46.0,14.0,-100.00,WNW,293,13.0,27.0,27,0.00,,,0.00,320.000000,,2013-04-22 01:32:00,
2013-04-21 19:52:00,41.0,10.0,-100.00,West,265,13.0,24.0,27,0.00,,,0.00,98.000000,,2013-04-22 01:52:00,
2013-04-21 20:02:00,41.0,10.0,-100.00,West,265,13.0,24.0,27,0.00,,,0.00,98.000000,,2013-04-22 02:02:00,
2013-04-21 20:11:00,41.0,10.0,-100.00,West,265,13.0,24.0,27,0.00,,,0.00,98.000000,,2013-04-22 02:11:00,
2013-04-21 20:21:00,41.0,10.0,-100.00,West,265,13.0,24.0,27,0.00,,,0.00,98.000000,,2013-04-22 02:21:00,
2013-04-21 20:32:00,41.0,10.0,-100.00,West,265,13.0,24.0,27,0.00,,,0.00,98.000000,,2013-04-22 02:32:00,
2013-04-21 20:52:00,40.0,10.0,-100.00,WSW,247,13.0,29.0,29,0.00,,,0.00,3.000000,,2013-04-22 02:52:00,
2013-04-21 21:02:00,40.0,10.0,-100.00,WSW,247,13.0,29.0,29,0.00,,,0.00,3.000000,,2013-04-22 03:02:00,
2013-04-21 21:11:00,40.0,10.0,-100.00,WSW,247,13.0,29.0,29,0.00,,,0.00,3.000000,,2013-04-22 03:11:00,
2013-04-21 21:22:00,40.0,10.0,-100.00,WSW,247,13.0,29.0,29,0.00,,,0.00,3.000000,,2013-04-22 03:22:00,
2013-04-21 21:33:00,40.0,10.0,-100.00,WSW,247,13.0,29.0,29,0.00,,,0.00,3.000000,,2013-04-22 03:33:00,
2013-04-21 21:53:00,38.0,11.0,-100.00,WSW,244,10.0,19.0,32,0.00,,,0.00,0.000000,,2013-04-22 03:53:00,
2013-04-21 22:03:00,38.0,11.0,-100.00,WSW,244,10.0,19.0,32,0.00,,,0.00,0.000000,,2013-04-22 04:03:00,
2013-04-21 22:12:00,38.0,11.0,-100.00,WSW,244,10.0,19.0,32,0.00,,,0.00,0.000000,,2013-04-22 04:12:00,
2013-04-21 22:23:00,38.0,11.0,-100.00,WSW,244,10.0,19.0,32,0.00,,,0.00,0.000000,,2013-04-22 04:23:00,
2013-04-21 22:33:00,38.0,11.0,-100.00,WSW,244,10.0,19.0,32,0.00,,,0.00,0.000000,,2013-04-22 04:33:00,
2013-04-21 22:53:00,39.0,9.0,-100.00,WSW,240,12.0,24.0,29,0.00,,,0.00,0.000000,,2013-04-22 04:53:00,
2013-04-21 23:02:00,39.0,9.0,-100.00,WSW,240,12.0,24.0,29,0.00,,,0.00,0.000000,,2013-04-22 05:02:00,
2013-04-21 23:12:00,39.0,9.0,-100.00,WSW,240,12.0,24.0,29,0.00,,,0.00,0.000000,,2013-04-22 05:12:00,
2013-04-21 23:22:00,39.0,9.0,-100.00,WSW,240,12.0,24.0,29,0.00,,,0.00,0.000000,,2013-04-22 05:22:00,
2013-04-21 23:32:00,39.0,9.0,-100.00,WSW,240,12.0,24.0,29,0.00,,,0.00,0.000000,,2013-04-22 05:32:00,
2013-04-21 23:52:00,37.0,11.0,-100.00,SW,230,8.0,14.0,33,0.00,,,0.00,0.000000,,2013-04-22 05:52:00,